createdAt,value
2018-06-13T00:01:03.460Z,14.19
2018-06-13T00:02:04.022Z,14.25
2018-06-13T00:03:04.612Z,14.18
2018-06-13T00:04:05.157Z,14.15
2018-06-13T00:05:05.701Z,14.12
2018-06-13T00:06:06.245Z,14.17
2018-06-13T00:07:06.798Z,14.10
2018-06-13T00:08:07.344Z,14.14
2018-06-13T00:09:07.894Z,14.15
2018-06-13T00:10:08.447Z,14.08
2018-06-13T00:11:08.998Z,14.07
2018-06-13T00:12:09.545Z,14.14
2018-06-13T00:13:10.093Z,14.18
2018-06-13T00:14:10.638Z,14.07
2018-06-13T00:15:11.190Z,14.14
2018-06-13T00:16:11.736Z,14.12
2018-06-13T00:17:12.287Z,14.03
2018-06-13T00:18:12.837Z,14.00
2018-06-13T00:19:13.390Z,14.00
2018-06-13T00:20:13.934Z,13.93
2018-06-13T00:21:14.486Z,13.93
2018-06-13T00:22:15.035Z,13.89
2018-06-13T00:23:15.586Z,13.87
2018-06-13T00:24:16.135Z,13.93
2018-06-13T00:25:16.685Z,13.75
2018-06-13T00:26:17.232Z,13.78
2018-06-13T00:27:17.781Z,13.72
2018-06-13T00:28:18.333Z,13.74
2018-06-13T00:29:18.878Z,13.72
2018-06-13T00:30:19.427Z,13.63
2018-06-13T00:31:19.978Z,13.61
2018-06-13T00:32:20.521Z,13.54
2018-06-13T00:33:21.077Z,13.64
2018-06-13T00:34:21.623Z,13.61
2018-06-13T00:35:22.172Z,13.52
2018-06-13T00:36:22.718Z,13.45
2018-06-13T00:37:23.265Z,13.44
2018-06-13T00:38:23.809Z,13.45
2018-06-13T00:39:24.359Z,13.39
2018-06-13T00:40:24.904Z,13.39
2018-06-13T00:41:25.447Z,13.44
2018-06-13T00:42:25.996Z,13.38
2018-06-13T00:43:26.543Z,13.35
2018-06-13T00:44:27.092Z,13.42
2018-06-13T00:45:27.638Z,13.31
2018-06-13T00:46:28.226Z,13.30
2018-06-13T00:47:28.735Z,13.22
2018-06-13T00:48:29.280Z,13.15
2018-06-13T00:49:29.827Z,13.16
2018-06-13T00:50:30.379Z,13.20
2018-06-13T00:51:30.931Z,13.18
2018-06-13T00:52:31.474Z,13.07
2018-06-13T00:53:32.026Z,13.18
2018-06-13T00:54:32.577Z,13.05
2018-06-13T00:55:33.123Z,12.98
2018-06-13T00:56:33.668Z,12.98
2018-06-13T00:57:34.215Z,13.10
2018-06-13T00:58:34.762Z,13.04
2018-06-13T00:59:35.306Z,13.04
2018-06-13T01:00:35.852Z,13.08
2018-06-13T01:01:36.404Z,13.04
2018-06-13T01:02:36.944Z,13.04
2018-06-13T01:03:37.493Z,13.01
2018-06-13T01:04:38.042Z,13.02
2018-06-13T01:05:38.583Z,12.98
2018-06-13T01:06:39.131Z,12.93
2018-06-13T01:07:39.681Z,12.87
2018-06-13T01:08:40.229Z,12.80
2018-06-13T01:09:40.780Z,12.80
2018-06-13T01:10:41.321Z,12.75
2018-06-13T01:11:41.872Z,12.68
2018-06-13T01:12:42.419Z,12.71
2018-06-13T01:13:42.973Z,12.58
2018-06-13T01:14:43.526Z,12.65
2018-06-13T01:15:44.071Z,12.68
2018-06-13T01:16:44.615Z,12.60
2018-06-13T01:17:45.162Z,12.58
2018-06-13T01:18:45.710Z,12.53
2018-06-13T01:19:46.260Z,12.55
2018-06-13T01:20:46.807Z,12.49
2018-06-13T01:21:47.355Z,12.49
2018-06-13T01:22:47.911Z,12.44
2018-06-13T01:23:48.454Z,12.47
2018-06-13T01:24:49.001Z,12.42
2018-06-13T01:25:49.551Z,12.27
2018-06-13T01:26:50.097Z,12.39
2018-06-13T01:27:50.644Z,12.43
2018-06-13T01:28:51.198Z,12.31
2018-06-13T01:29:51.743Z,12.28
2018-06-13T01:30:52.291Z,12.29
2018-06-13T01:31:52.842Z,12.42
2018-06-13T01:32:53.381Z,12.39
2018-06-13T01:33:53.933Z,12.31
2018-06-13T01:34:54.476Z,12.31
2018-06-13T01:35:55.032Z,12.31
2018-06-13T01:36:55.576Z,12.27
2018-06-13T01:37:56.125Z,12.25
2018-06-13T01:38:56.676Z,12.21
2018-06-13T01:39:57.216Z,12.32
2018-06-13T01:40:57.764Z,12.16
2018-06-13T01:41:58.313Z,12.18
2018-06-13T01:42:58.864Z,12.19
2018-06-13T01:43:59.411Z,12.07
2018-06-13T01:44:59.963Z,12.09
2018-06-13T01:46:00.509Z,12.13
2018-06-13T01:47:01.047Z,12.18
2018-06-13T01:48:01.597Z,12.22
2018-06-13T01:49:02.145Z,12.22
2018-06-13T01:50:02.689Z,12.28
2018-06-13T01:51:03.240Z,12.28
2018-06-13T01:52:03.783Z,12.24
2018-06-13T01:53:04.332Z,12.34
2018-06-13T01:54:04.881Z,12.29
2018-06-13T01:55:05.433Z,12.31
2018-06-13T01:56:05.987Z,12.31
2018-06-13T01:57:06.532Z,12.32
2018-06-13T01:58:07.081Z,12.35
2018-06-13T01:59:07.626Z,12.32
2018-06-13T02:00:08.167Z,12.28
2018-06-13T02:01:08.714Z,12.43
2018-06-13T02:02:09.262Z,12.43
2018-06-13T02:03:09.811Z,12.44
2018-06-13T02:04:10.354Z,12.34
2018-06-13T02:05:10.906Z,12.46
2018-06-13T02:06:11.451Z,12.34
2018-06-13T02:07:11.998Z,12.40
2018-06-13T02:08:12.544Z,12.44
2018-06-13T02:09:13.096Z,12.29
2018-06-13T02:10:13.645Z,12.40
2018-06-13T02:11:14.192Z,12.43
2018-06-13T02:12:14.734Z,12.43
2018-06-13T02:13:15.282Z,12.42
2018-06-13T02:14:15.833Z,12.40
2018-06-13T02:15:16.380Z,12.37
2018-06-13T02:16:16.928Z,12.46
2018-06-13T02:17:17.473Z,12.49
2018-06-13T02:18:18.023Z,12.46
2018-06-13T02:19:18.576Z,12.47
2018-06-13T02:20:19.124Z,12.44
2018-06-13T02:21:19.672Z,12.43
2018-06-13T02:22:20.220Z,12.47
2018-06-13T02:23:20.768Z,12.49
2018-06-13T02:24:21.313Z,12.47
2018-06-13T02:25:21.867Z,12.55
2018-06-13T02:26:22.416Z,12.46
2018-06-13T02:27:23.017Z,12.50
2018-06-13T02:28:23.510Z,12.49
2018-06-13T02:29:24.062Z,12.62
2018-06-13T02:30:24.606Z,12.47
2018-06-13T02:31:25.153Z,12.62
2018-06-13T02:32:25.698Z,12.58
2018-06-13T02:33:26.251Z,12.67
2018-06-13T02:34:26.800Z,12.62
2018-06-13T02:35:27.352Z,12.60
2018-06-13T02:36:27.900Z,12.62
2018-06-13T02:37:28.445Z,12.60
2018-06-13T02:38:29.008Z,12.69
2018-06-13T02:39:29.553Z,12.71
2018-06-13T02:40:30.090Z,12.60
2018-06-13T02:41:30.642Z,12.60
2018-06-13T02:42:31.186Z,12.71
2018-06-13T02:43:31.730Z,12.69
2018-06-13T02:44:32.281Z,12.67
2018-06-13T02:45:32.832Z,12.67
2018-06-13T02:46:33.379Z,12.71
2018-06-13T02:47:33.924Z,12.75
2018-06-13T02:48:34.470Z,12.76
2018-06-13T02:49:35.018Z,12.85
2018-06-13T02:50:35.569Z,12.89
2018-06-13T02:51:36.115Z,12.89
2018-06-13T02:52:36.663Z,12.83
2018-06-13T02:53:37.216Z,12.87
2018-06-13T02:54:37.817Z,12.89
2018-06-13T02:55:38.364Z,12.85
2018-06-13T02:56:38.911Z,12.93
2018-06-13T02:57:39.455Z,12.89
2018-06-13T02:58:40.004Z,12.87
2018-06-13T02:59:40.549Z,12.86
2018-06-13T03:00:41.100Z,12.87
2018-06-13T03:01:41.653Z,12.87
2018-06-13T03:02:42.204Z,12.87
2018-06-13T03:03:42.753Z,12.87
2018-06-13T03:04:43.298Z,12.83
2018-06-13T03:05:43.847Z,12.82
2018-06-13T03:06:44.396Z,12.85
2018-06-13T03:07:44.946Z,12.77
2018-06-13T03:08:45.489Z,12.82
2018-06-13T03:09:46.040Z,12.79
2018-06-13T03:10:46.600Z,12.82
2018-06-13T03:11:47.146Z,12.86
2018-06-13T03:12:47.697Z,12.85
2018-06-13T03:13:48.247Z,12.87
2018-06-13T03:14:48.793Z,12.85
2018-06-13T03:15:49.346Z,12.77
2018-06-13T03:16:49.898Z,12.86
2018-06-13T03:17:50.445Z,12.89
2018-06-13T03:18:50.997Z,12.87
2018-06-13T03:19:51.552Z,12.83
2018-06-13T03:20:52.133Z,12.85
2018-06-13T03:21:52.652Z,12.83
2018-06-13T03:22:53.201Z,12.85
2018-06-13T03:23:53.752Z,12.82
2018-06-13T03:24:54.311Z,12.85
2018-06-13T03:25:54.856Z,12.83
2018-06-13T03:26:55.400Z,12.86
2018-06-13T03:27:55.948Z,12.82
2018-06-13T03:28:56.509Z,12.85
2018-06-13T03:29:57.060Z,12.90
2018-06-13T03:30:57.608Z,12.85
2018-06-13T03:31:58.160Z,12.86
2018-06-13T03:32:58.713Z,12.87
2018-06-13T03:33:59.266Z,12.87
2018-06-13T03:34:59.817Z,12.86
2018-06-13T03:36:00.369Z,12.94
2018-06-13T03:37:00.917Z,12.95
2018-06-13T03:38:01.473Z,12.87
2018-06-13T03:39:02.034Z,12.97
2018-06-13T03:40:02.590Z,12.93
2018-06-13T03:41:03.181Z,12.86
2018-06-13T03:42:03.708Z,12.90
2018-06-13T03:43:04.271Z,12.89
2018-06-13T03:44:04.828Z,12.90
2018-06-13T03:45:05.386Z,12.93
2018-06-13T03:46:05.945Z,12.97
2018-06-13T03:47:06.503Z,12.94
2018-06-13T03:48:07.065Z,12.95
2018-06-13T03:49:07.622Z,12.98
2018-06-13T03:50:08.178Z,13.01
2018-06-13T03:51:08.729Z,13.05
2018-06-13T03:52:09.280Z,12.98
2018-06-13T03:53:09.841Z,12.98
2018-06-13T03:54:10.399Z,13.02
2018-06-13T03:55:10.960Z,13.01
2018-06-13T03:56:11.516Z,13.01
2018-06-13T03:57:12.069Z,12.98
2018-06-13T03:58:12.617Z,13.00
2018-06-13T03:59:13.179Z,12.95
2018-06-13T04:00:13.741Z,12.98
2018-06-13T04:01:14.304Z,12.95
2018-06-13T04:02:14.859Z,12.97
2018-06-13T04:03:15.418Z,13.00
2018-06-13T04:04:15.968Z,13.00
2018-06-13T04:05:16.526Z,13.04
2018-06-13T04:06:17.094Z,13.04
2018-06-13T04:07:17.704Z,13.01
2018-06-13T04:08:18.201Z,13.01
2018-06-13T04:09:18.758Z,13.07
2018-06-13T04:10:19.319Z,13.07
2018-06-13T04:11:19.879Z,13.02
2018-06-13T04:12:20.427Z,13.15
2018-06-13T04:13:20.985Z,13.15
2018-06-13T04:14:21.545Z,13.13
2018-06-13T04:15:22.111Z,13.20
2018-06-13T04:16:22.667Z,13.16
2018-06-13T04:17:23.222Z,13.16
2018-06-13T04:18:23.775Z,13.19
2018-06-13T04:19:24.331Z,13.22
2018-06-13T04:20:24.884Z,13.23
2018-06-13T04:21:25.440Z,13.18
2018-06-13T04:22:26.005Z,13.20
2018-06-13T04:23:26.556Z,13.27
2018-06-13T04:24:27.137Z,13.31
2018-06-13T04:25:27.692Z,13.35
2018-06-13T04:26:28.244Z,13.33
2018-06-13T04:27:28.807Z,13.39
2018-06-13T04:28:29.364Z,13.38
2018-06-13T04:29:29.916Z,13.39
2018-06-13T04:30:30.475Z,13.49
2018-06-13T04:31:31.029Z,13.49
2018-06-13T04:32:31.590Z,13.60
2018-06-13T04:33:32.151Z,13.57
2018-06-13T04:34:32.710Z,13.59
2018-06-13T04:35:33.262Z,13.63
2018-06-13T04:36:33.829Z,13.60
2018-06-13T04:37:34.390Z,13.52
2018-06-13T04:38:34.952Z,13.59
2018-06-13T04:39:35.508Z,13.59
2018-06-13T04:40:36.060Z,13.59
2018-06-13T04:41:36.626Z,13.49
2018-06-13T04:42:37.192Z,13.69
2018-06-13T04:43:37.758Z,13.69
2018-06-13T04:44:38.309Z,13.61
2018-06-13T04:45:38.940Z,13.57
2018-06-13T04:46:39.471Z,13.59
2018-06-13T04:47:40.048Z,13.66
2018-06-13T04:48:40.623Z,13.59
2018-06-13T04:49:41.160Z,13.72
2018-06-13T04:50:41.719Z,13.77
2018-06-13T04:51:42.277Z,13.63
2018-06-13T04:52:42.830Z,13.77
2018-06-13T04:53:43.385Z,13.77
2018-06-13T04:54:43.946Z,13.72
2018-06-13T04:55:44.499Z,13.74
2018-06-13T04:56:45.060Z,13.74
2018-06-13T04:57:45.609Z,13.77
2018-06-13T04:58:46.162Z,13.78
2018-06-13T04:59:46.723Z,13.72
2018-06-13T05:00:47.267Z,13.87
2018-06-13T05:01:47.829Z,13.90
2018-06-13T05:02:48.386Z,13.81
2018-06-13T05:03:48.944Z,13.89
2018-06-13T05:04:49.511Z,13.92
2018-06-13T05:05:50.070Z,14.02
2018-06-13T05:06:50.629Z,14.00
2018-06-13T05:07:51.178Z,14.10
2018-06-13T05:08:51.729Z,14.12
2018-06-13T05:09:52.288Z,14.17
2018-06-13T05:10:52.850Z,14.17
2018-06-13T05:11:53.401Z,14.25
2018-06-13T05:12:53.963Z,14.18
2018-06-13T05:13:54.521Z,14.14
2018-06-13T05:14:55.078Z,14.18
2018-06-13T05:15:55.636Z,14.18
2018-06-13T05:16:56.197Z,14.15
2018-06-13T05:17:56.757Z,14.21
2018-06-13T05:18:57.309Z,14.18
2018-06-13T05:19:57.861Z,14.08
2018-06-13T05:20:58.427Z,14.15
2018-06-13T05:21:58.975Z,14.14
2018-06-13T05:22:59.531Z,14.19
2018-06-13T05:24:00.087Z,14.15
2018-06-13T05:25:00.639Z,14.21
2018-06-13T05:26:01.207Z,14.14
2018-06-13T05:27:01.758Z,14.25
2018-06-13T05:28:02.316Z,14.26
2018-06-13T05:29:02.872Z,14.25
2018-06-13T05:30:03.424Z,14.19
2018-06-13T05:31:03.984Z,14.19
2018-06-13T05:32:04.538Z,14.17
2018-06-13T05:33:05.132Z,14.21
2018-06-13T05:34:05.669Z,14.10
2018-06-13T05:35:06.223Z,14.15
2018-06-13T05:36:06.784Z,14.15
2018-06-13T05:37:07.338Z,14.15
2018-06-13T05:38:07.890Z,14.17
2018-06-13T05:39:08.458Z,14.12
2018-06-13T05:40:09.018Z,14.12
2018-06-13T05:41:09.567Z,14.19
2018-06-13T05:42:10.124Z,14.18
2018-06-13T05:43:10.684Z,14.23
2018-06-13T05:44:11.238Z,14.27
2018-06-13T05:45:11.793Z,14.17
2018-06-13T05:46:12.344Z,14.14
2018-06-13T05:47:12.911Z,14.33
2018-06-13T05:48:13.473Z,14.30
2018-06-13T05:49:14.026Z,14.40
2018-06-13T05:50:14.587Z,14.48
2018-06-13T05:51:15.152Z,14.47
2018-06-13T05:52:15.712Z,14.45
2018-06-13T05:53:16.262Z,14.51
2018-06-13T05:54:16.819Z,14.43
2018-06-13T05:55:17.378Z,14.40
2018-06-13T05:56:17.948Z,14.43
2018-06-13T05:57:18.498Z,14.44
2018-06-13T05:58:19.054Z,14.39
2018-06-13T05:59:19.614Z,14.40
2018-06-13T06:00:20.172Z,14.50
2018-06-13T06:01:20.771Z,14.52
2018-06-13T06:02:21.301Z,14.54
2018-06-13T06:03:21.860Z,14.57
2018-06-13T06:04:22.418Z,14.57
2018-06-13T06:05:22.979Z,14.60
2018-06-13T06:06:23.537Z,14.82
2018-06-13T06:07:24.114Z,14.77
2018-06-13T06:08:24.663Z,14.84
2018-06-13T06:09:25.222Z,14.96
2018-06-13T06:10:25.911Z,15.00
2018-06-13T06:11:26.329Z,14.94
2018-06-13T06:12:26.885Z,14.99
2018-06-13T06:13:27.467Z,14.96
2018-06-13T06:14:27.992Z,15.04
2018-06-13T06:15:28.551Z,15.10
2018-06-13T06:16:29.105Z,15.18
2018-06-13T06:17:29.664Z,15.31
2018-06-13T06:18:30.220Z,15.36
2018-06-13T06:19:30.776Z,15.34
2018-06-13T06:20:31.334Z,15.42
2018-06-13T06:21:31.913Z,15.59
2018-06-13T06:22:32.477Z,15.65
2018-06-13T06:23:33.076Z,15.69
2018-06-13T06:24:33.605Z,15.84
2018-06-13T06:25:34.159Z,15.82
2018-06-13T06:26:34.727Z,15.98
2018-06-13T06:27:35.273Z,15.99
2018-06-13T06:28:35.832Z,15.83
2018-06-13T06:29:36.389Z,15.97
2018-06-13T06:30:36.955Z,16.10
2018-06-13T06:31:37.509Z,15.99
2018-06-13T06:32:38.066Z,16.01
2018-06-13T06:33:38.630Z,16.02
2018-06-13T06:34:39.186Z,15.98
2018-06-13T06:35:39.743Z,15.94
2018-06-13T06:36:40.314Z,16.01
2018-06-13T06:37:40.866Z,16.12
2018-06-13T06:38:41.428Z,16.24
2018-06-13T06:39:41.984Z,16.38
2018-06-13T06:40:42.544Z,16.39
2018-06-13T06:41:43.108Z,16.33
2018-06-13T06:42:43.672Z,16.27
2018-06-13T06:43:44.233Z,16.29
2018-06-13T06:44:44.794Z,16.43
2018-06-13T06:45:45.448Z,16.41
2018-06-13T06:46:45.945Z,16.45
2018-06-13T06:47:46.516Z,16.39
2018-06-13T06:48:47.064Z,16.42
2018-06-13T06:49:47.626Z,16.50
2018-06-13T06:50:48.209Z,16.38
2018-06-13T06:51:48.744Z,16.35
2018-06-13T06:52:49.298Z,16.29
2018-06-13T06:53:49.851Z,16.33
2018-06-13T06:54:50.437Z,16.35
2018-06-13T06:55:50.969Z,16.42
2018-06-13T06:56:51.525Z,16.54
2018-06-13T06:57:52.090Z,16.64
2018-06-13T06:58:52.646Z,16.73
2018-06-13T06:59:53.203Z,16.61
2018-06-13T07:00:53.769Z,16.81
2018-06-13T07:01:54.328Z,16.86
2018-06-13T07:02:54.887Z,16.98
2018-06-13T07:03:55.440Z,16.91
2018-06-13T07:04:56.010Z,16.89
2018-06-13T07:05:56.561Z,16.87
2018-06-13T07:06:57.123Z,16.90
2018-06-13T07:07:57.686Z,16.97
2018-06-13T07:08:58.274Z,16.97
2018-06-13T07:09:58.824Z,16.83
2018-06-13T07:10:59.379Z,16.81
2018-06-13T07:11:59.940Z,17.01
2018-06-13T07:13:00.496Z,16.96
2018-06-13T07:14:01.048Z,16.97
2018-06-13T07:15:01.606Z,16.91
2018-06-13T07:16:02.168Z,16.97
2018-06-13T07:17:02.733Z,16.98
2018-06-13T07:18:03.325Z,17.04
2018-06-13T07:19:03.941Z,17.15
2018-06-13T07:20:04.415Z,17.12
2018-06-13T07:21:04.977Z,17.08
2018-06-13T07:22:05.542Z,16.86
2018-06-13T07:23:06.088Z,16.90
2018-06-13T07:24:06.649Z,16.78
2018-06-13T07:25:07.212Z,16.87
2018-06-13T07:26:07.772Z,16.86
2018-06-13T07:27:08.323Z,16.91
2018-06-13T07:28:08.882Z,17.00
2018-06-13T07:29:09.443Z,16.93
2018-06-13T07:30:10.019Z,16.96
2018-06-13T07:31:10.577Z,16.87
2018-06-13T07:32:11.140Z,16.87
2018-06-13T07:33:11.703Z,16.94
2018-06-13T07:34:12.303Z,17.04
2018-06-13T07:35:12.832Z,16.91
2018-06-13T07:36:13.395Z,16.98
2018-06-13T07:37:13.953Z,16.94
2018-06-13T07:38:14.514Z,17.06
2018-06-13T07:39:15.078Z,17.05
2018-06-13T07:40:15.645Z,17.09
2018-06-13T07:41:16.200Z,17.12
2018-06-13T07:42:16.753Z,17.08
2018-06-13T07:43:17.342Z,17.06
2018-06-13T07:44:17.902Z,16.98
2018-06-13T07:45:18.463Z,16.98
2018-06-13T07:46:19.017Z,16.94
2018-06-13T07:47:19.574Z,16.97
2018-06-13T07:48:20.137Z,16.98
2018-06-13T07:49:20.699Z,16.98
2018-06-13T07:50:21.264Z,16.94
2018-06-13T07:51:21.833Z,16.91
2018-06-13T07:52:22.397Z,16.93
2018-06-13T07:53:22.959Z,17.00
2018-06-13T07:54:23.522Z,17.06
2018-06-13T07:55:24.081Z,17.00
2018-06-13T07:56:24.642Z,17.01
2018-06-13T07:57:25.219Z,17.05
2018-06-13T07:58:25.782Z,16.98
2018-06-13T07:59:26.367Z,17.04
2018-06-13T08:00:26.967Z,17.01
2018-06-13T08:01:27.565Z,16.82
2018-06-13T08:02:28.137Z,17.00
2018-06-13T08:03:28.706Z,16.98
2018-06-13T08:04:29.275Z,16.82
2018-06-13T08:05:29.840Z,16.75
2018-06-13T08:06:30.393Z,16.76
2018-06-13T08:07:30.967Z,16.69
2018-06-13T08:08:31.621Z,16.76
2018-06-13T08:09:32.091Z,16.64
2018-06-13T08:10:32.655Z,16.71
2018-06-13T08:11:33.235Z,16.76
2018-06-13T08:12:33.824Z,16.90
2018-06-13T08:13:34.402Z,16.98
2018-06-13T08:14:35.022Z,16.98
2018-06-13T08:15:35.665Z,17.06
2018-06-13T08:16:36.320Z,16.89
2018-06-13T08:17:36.913Z,17.16
2018-06-13T08:18:37.545Z,17.36
2018-06-13T08:19:38.147Z,17.51
2018-06-13T08:20:38.736Z,17.37
2018-06-13T08:21:39.345Z,17.36
2018-06-13T08:22:39.973Z,17.18
2018-06-13T08:23:40.574Z,17.27
2018-06-13T08:24:41.181Z,17.15
2018-06-13T08:25:41.814Z,17.15
2018-06-13T08:26:42.432Z,17.16
2018-06-13T08:27:43.091Z,17.41
2018-06-13T08:28:43.729Z,17.45
2018-06-13T08:29:44.381Z,17.49
2018-06-13T08:30:45.001Z,17.59
2018-06-13T08:31:45.694Z,17.49
2018-06-13T08:32:46.378Z,17.34
2018-06-13T08:33:47.084Z,17.21
2018-06-13T08:34:47.601Z,17.34
2018-06-13T08:35:48.220Z,17.48
2018-06-13T08:36:48.850Z,17.63
2018-06-13T08:37:49.439Z,17.72
2018-06-13T08:38:50.060Z,17.82
2018-06-13T08:39:50.681Z,17.77
2018-06-13T08:40:51.240Z,17.97
2018-06-13T08:41:51.817Z,17.92
2018-06-13T08:42:52.402Z,17.93
2018-06-13T08:43:52.993Z,18.18
2018-06-13T08:44:53.565Z,18.27
2018-06-13T08:45:54.149Z,18.00
2018-06-13T08:46:54.739Z,18.00
2018-06-13T08:47:55.316Z,17.82
2018-06-13T08:48:55.897Z,17.82
2018-06-13T08:49:56.466Z,17.86
2018-06-13T08:50:57.043Z,17.85
2018-06-13T08:51:57.654Z,17.80
2018-06-13T08:52:58.255Z,17.80
2018-06-13T08:53:58.825Z,18.01
2018-06-13T08:54:59.384Z,17.82
2018-06-13T08:55:59.942Z,17.92
2018-06-13T08:57:00.505Z,17.98
2018-06-13T08:58:01.063Z,17.86
2018-06-13T08:59:01.647Z,17.82
2018-06-13T09:00:02.219Z,17.75
2018-06-13T09:01:02.822Z,17.59
2018-06-13T09:02:03.396Z,17.54
2018-06-13T09:03:03.979Z,17.48
2018-06-13T09:04:04.538Z,17.41
2018-06-13T09:05:05.120Z,17.27
2018-06-13T09:06:05.685Z,17.31
2018-06-13T09:07:06.287Z,17.26
2018-06-13T09:08:06.898Z,17.09
2018-06-13T09:09:07.493Z,16.98
2018-06-13T09:10:08.103Z,16.89
2018-06-13T09:11:08.704Z,16.82
2018-06-13T09:12:09.259Z,16.63
2018-06-13T09:13:09.874Z,16.56
2018-06-13T09:14:10.483Z,16.38
2018-06-13T09:15:11.090Z,16.41
2018-06-13T09:16:11.735Z,16.20
2018-06-13T09:17:12.357Z,16.21
2018-06-13T09:18:12.941Z,16.17
2018-06-13T09:19:13.564Z,16.23
2018-06-13T09:20:14.145Z,16.15
2018-06-13T09:21:14.700Z,16.01
2018-06-13T09:22:15.266Z,15.98
2018-06-13T09:23:15.839Z,15.98
2018-06-13T09:24:16.405Z,15.87
2018-06-13T09:25:16.971Z,15.98
2018-06-13T09:26:17.523Z,16.15
2018-06-13T09:27:18.082Z,16.20
2018-06-13T09:28:18.642Z,16.33
2018-06-13T09:29:19.202Z,16.38
2018-06-13T09:30:19.765Z,16.78
2018-06-13T09:31:20.383Z,16.87
2018-06-13T09:32:20.885Z,16.97
2018-06-13T09:33:21.444Z,17.15
2018-06-13T09:34:21.999Z,17.42
2018-06-13T09:35:22.561Z,17.59
2018-06-13T09:36:23.145Z,17.75
2018-06-13T09:37:23.728Z,17.75
2018-06-13T09:38:24.294Z,17.74
2018-06-13T09:39:24.829Z,17.77
2018-06-13T09:40:25.395Z,17.92
2018-06-13T09:41:25.960Z,18.20
2018-06-13T09:42:26.529Z,18.40
2018-06-13T09:43:27.085Z,18.41
2018-06-13T09:44:27.651Z,18.45
2018-06-13T09:45:28.212Z,18.47
2018-06-13T09:46:28.771Z,18.53
2018-06-13T09:47:29.344Z,18.51
2018-06-13T09:48:29.911Z,18.50
2018-06-13T09:49:30.498Z,18.60
2018-06-13T09:50:31.077Z,18.55
2018-06-13T09:51:31.644Z,18.47
2018-06-13T09:52:32.261Z,18.51
2018-06-13T09:53:32.950Z,18.37
2018-06-13T09:54:33.564Z,18.29
2018-06-13T09:55:34.190Z,18.12
2018-06-13T09:56:34.780Z,18.26
2018-06-13T09:57:35.389Z,18.25
2018-06-13T09:58:35.984Z,18.38
2018-06-13T09:59:36.590Z,18.44
2018-06-13T10:00:37.214Z,18.50
2018-06-13T10:01:37.930Z,18.63
2018-06-13T10:02:38.538Z,18.85
2018-06-13T10:03:39.183Z,19.00
2018-06-13T10:04:39.914Z,19.27
2018-06-13T10:05:40.542Z,19.37
2018-06-13T10:06:41.191Z,19.37
2018-06-13T10:07:41.845Z,19.47
2018-06-13T10:08:42.466Z,19.69
2018-06-13T10:09:43.111Z,19.84
2018-06-13T10:10:43.726Z,19.80
2018-06-13T10:11:44.331Z,19.77
2018-06-13T10:12:44.946Z,19.73
2018-06-13T10:13:45.567Z,19.58
2018-06-13T10:14:46.257Z,19.51
2018-06-13T10:15:46.832Z,19.70
2018-06-13T10:16:47.428Z,19.47
2018-06-13T10:17:48.040Z,19.48
2018-06-13T10:18:48.672Z,19.64
2018-06-13T10:19:49.271Z,19.58
2018-06-13T10:20:49.864Z,19.64
2018-06-13T10:21:50.445Z,19.55
2018-06-13T10:22:51.095Z,19.66
2018-06-13T10:23:51.716Z,19.77
2018-06-13T10:24:52.323Z,20.07
2018-06-13T10:25:52.968Z,20.16
2018-06-13T10:26:53.597Z,20.29
2018-06-13T10:27:54.194Z,20.22
2018-06-13T10:28:54.834Z,20.36
2018-06-13T10:29:55.466Z,20.51
2018-06-13T10:30:56.153Z,20.54
2018-06-13T10:31:56.746Z,20.57
2018-06-13T10:32:57.417Z,20.57
2018-06-13T10:33:58.066Z,20.57
2018-06-13T10:34:58.725Z,20.70
2018-06-13T10:35:59.394Z,20.81
2018-06-13T10:37:00.089Z,20.75
2018-06-13T10:38:00.691Z,20.84
2018-06-13T10:39:01.289Z,20.95
2018-06-13T10:40:01.971Z,20.82
2018-06-13T10:41:02.612Z,21.00
2018-06-13T10:42:03.272Z,20.92
2018-06-13T10:43:03.881Z,20.77
2018-06-13T10:44:04.511Z,20.81
2018-06-13T10:45:05.156Z,20.70
2018-06-13T10:46:05.773Z,20.91
2018-06-13T10:47:06.378Z,21.09
2018-06-13T10:48:06.996Z,21.43
2018-06-13T10:49:07.570Z,21.73
2018-06-13T10:50:08.176Z,22.03
2018-06-13T10:51:08.782Z,22.53
2018-06-13T10:52:09.353Z,22.83
2018-06-13T10:53:09.946Z,23.09
2018-06-13T10:54:10.570Z,23.18
2018-06-13T10:55:11.193Z,23.37
2018-06-13T10:56:11.778Z,23.66
2018-06-13T10:57:12.432Z,23.84
2018-06-13T10:58:13.060Z,23.77
2018-06-13T10:59:13.716Z,23.88
2018-06-13T11:00:14.380Z,23.74
2018-06-13T11:01:15.038Z,23.74
2018-06-13T11:02:15.629Z,23.80
2018-06-13T11:03:16.274Z,23.81
2018-06-13T11:04:16.938Z,23.74
2018-06-13T11:05:17.595Z,23.43
2018-06-13T11:06:18.268Z,23.41
2018-06-13T11:07:18.937Z,23.25
2018-06-13T11:08:19.612Z,22.99
2018-06-13T11:09:20.278Z,22.84
2018-06-13T11:10:20.942Z,22.62
2018-06-13T11:11:21.629Z,22.48
2018-06-13T11:12:22.339Z,22.44
2018-06-13T11:13:22.916Z,22.26
2018-06-13T11:14:23.553Z,22.03
2018-06-13T11:15:24.195Z,22.10
2018-06-13T11:16:24.875Z,21.95
2018-06-13T11:17:25.556Z,21.75
2018-06-13T11:18:26.294Z,21.62
2018-06-13T11:19:26.927Z,21.54
2018-06-13T11:20:27.605Z,21.55
2018-06-13T11:21:28.227Z,21.54
2018-06-13T11:22:28.906Z,21.51
2018-06-13T11:23:29.577Z,21.55
2018-06-13T11:24:30.163Z,21.54
2018-06-13T11:25:30.809Z,21.62
2018-06-13T11:26:31.403Z,21.80
2018-06-13T11:27:32.077Z,21.79
2018-06-13T11:28:32.742Z,22.01
2018-06-13T11:29:33.373Z,21.91
2018-06-13T11:30:33.999Z,21.93
2018-06-13T11:31:34.630Z,21.91
2018-06-13T11:32:35.187Z,21.82
2018-06-13T11:33:35.786Z,21.98
2018-06-13T11:34:36.379Z,21.98
2018-06-13T11:35:37.020Z,21.92
2018-06-13T11:36:37.612Z,22.03
2018-06-13T11:37:38.249Z,22.32
2018-06-13T11:38:38.870Z,22.36
2018-06-13T11:39:39.487Z,22.63
2018-06-13T11:40:40.080Z,22.39
2018-06-13T11:41:40.684Z,22.11
2018-06-13T11:42:41.263Z,21.99
2018-06-13T11:43:41.843Z,21.99
2018-06-13T11:44:42.427Z,22.07
2018-06-13T11:45:43.037Z,22.07
2018-06-13T11:46:43.639Z,22.02
2018-06-13T11:47:44.271Z,22.26
2018-06-13T11:48:44.869Z,22.42
2018-06-13T11:49:45.466Z,22.39
2018-06-13T11:50:46.061Z,22.54
2018-06-13T11:51:46.639Z,22.72
2018-06-13T11:52:47.212Z,22.94
2018-06-13T11:53:47.795Z,23.32
2018-06-13T11:54:48.388Z,23.28
2018-06-13T11:55:48.985Z,23.25
2018-06-13T11:56:49.614Z,23.24
2018-06-13T11:57:50.244Z,23.25
2018-06-13T11:58:50.873Z,23.09
2018-06-13T11:59:51.490Z,22.76
2018-06-13T12:00:52.095Z,22.66
2018-06-13T12:01:52.833Z,22.47
2018-06-13T12:02:53.257Z,22.28
2018-06-13T12:03:53.850Z,22.23
2018-06-13T12:04:54.456Z,21.86
2018-06-13T12:05:55.033Z,21.60
2018-06-13T12:06:55.607Z,21.52
2018-06-13T12:07:56.200Z,21.40
2018-06-13T12:08:56.783Z,21.30
2018-06-13T12:09:57.374Z,21.14
2018-06-13T12:10:57.998Z,20.82
2018-06-13T12:11:58.600Z,20.69
2018-06-13T12:12:59.257Z,20.72
2018-06-13T12:13:59.895Z,20.57
2018-06-13T12:15:00.483Z,20.35
2018-06-13T12:16:01.067Z,20.39
2018-06-13T12:17:01.740Z,20.36
2018-06-13T12:18:02.262Z,20.34
2018-06-13T12:19:02.884Z,20.34
2018-06-13T12:20:03.527Z,20.19
2018-06-13T12:21:04.123Z,20.14
2018-06-13T12:22:04.719Z,20.24
2018-06-13T12:23:05.306Z,20.21
2018-06-13T12:24:05.887Z,20.11
2018-06-13T12:25:06.479Z,20.11
2018-06-13T12:26:07.072Z,20.16
2018-06-13T12:27:07.657Z,20.02
2018-06-13T12:28:08.253Z,20.04
2018-06-13T12:29:08.864Z,20.03
2018-06-13T12:30:09.438Z,20.14
2018-06-13T12:31:10.063Z,20.25
2018-06-13T12:32:10.674Z,20.19
2018-06-13T12:33:11.294Z,20.39
2018-06-13T12:34:11.968Z,20.31
2018-06-13T12:35:12.543Z,20.21
2018-06-13T12:36:13.135Z,20.19
2018-06-13T12:37:13.727Z,20.29
2018-06-13T12:38:14.345Z,20.06
2018-06-13T12:39:14.965Z,20.04
2018-06-13T12:40:15.611Z,20.03
2018-06-13T12:41:16.171Z,19.98
2018-06-13T12:42:16.771Z,19.99
2018-06-13T12:43:17.365Z,20.09
2018-06-13T12:44:17.999Z,20.21
2018-06-13T12:45:18.641Z,20.21
2018-06-13T12:46:19.250Z,20.24
2018-06-13T12:47:19.835Z,20.29
2018-06-13T12:48:20.411Z,20.28
2018-06-13T12:49:20.981Z,20.32
2018-06-13T12:50:21.590Z,20.25
2018-06-13T12:51:22.181Z,20.43
2018-06-13T12:52:22.761Z,20.24
2018-06-13T12:53:23.367Z,20.31
2018-06-13T12:54:23.942Z,20.31
2018-06-13T12:55:24.568Z,20.39
2018-06-13T12:56:25.216Z,20.48
2018-06-13T12:57:25.807Z,20.51
2018-06-13T12:58:26.400Z,20.62
2018-06-13T12:59:27.007Z,20.78
2018-06-13T13:00:27.615Z,21.00